createdAt,value
2023-01-06T00:01:33.842Z,98793.84
2023-01-06T00:04:03.229Z,98784.09
2023-01-06T00:06:32.235Z,98789.66
2023-01-06T00:09:04.387Z,98786.59
2023-01-06T00:11:34.956Z,98782.94
2023-01-06T00:14:02.906Z,98780.25
2023-01-06T00:16:31.098Z,98777.03
2023-01-06T00:19:00.398Z,98778.31
2023-01-06T00:21:29.918Z,98774.16
2023-01-06T00:23:57.769Z,98771.59
2023-01-06T00:26:27.064Z,98773.38
2023-01-06T00:28:54.903Z,98766.63
2023-01-06T00:31:24.267Z,98764.88
2023-01-06T00:33:52.378Z,98765.81
2023-01-06T00:36:21.564Z,98760.38
2023-01-06T00:38:49.891Z,98760.06
2023-01-06T00:41:35.383Z,98758.16
2023-01-06T00:44:04.629Z,98755.91
2023-01-06T00:46:34.311Z,98763.75
2023-01-06T00:49:06.022Z,98760.72
2023-01-06T00:51:37.990Z,98750.16
2023-01-06T00:54:06.081Z,98759.13
2023-01-06T00:56:33.815Z,98767.44
2023-01-06T00:59:04.869Z,98770.97
2023-01-06T01:01:33.251Z,98775.13
2023-01-06T01:04:01.694Z,98766.16
2023-01-06T01:06:29.951Z,98758.78
2023-01-06T01:09:00.060Z,98760.38
2023-01-06T01:11:45.789Z,98763.59
2023-01-06T01:14:15.883Z,98750.47
2023-01-06T01:16:43.519Z,98753.19
2023-01-06T01:19:12.696Z,98750.47
2023-01-06T01:21:40.685Z,98756.53
2023-01-06T01:24:08.639Z,98752.09
2023-01-06T01:26:36.435Z,98757.03
2023-01-06T01:29:04.716Z,98748.88
2023-01-06T01:31:34.554Z,98749.66
2023-01-06T01:34:02.291Z,98751.44
2023-01-06T01:36:30.367Z,98751.72
2023-01-06T01:38:58.496Z,98746.28
2023-01-06T01:41:27.328Z,98752.34
2023-01-06T01:43:58.867Z,98749.34
2023-01-06T01:46:30.960Z,98750.47
2023-01-06T01:49:04.823Z,98749.50
2023-01-06T01:51:36.850Z,98750.63
2023-01-06T01:54:09.611Z,98742.47
2023-01-06T01:56:42.781Z,98740.88
2023-01-06T01:59:13.077Z,98738.16
2023-01-06T02:01:40.950Z,98735.88
2023-01-06T02:04:49.560Z,98735.25
2023-01-06T02:07:19.210Z,98730.47
2023-01-06T02:09:56.989Z,98732.53
2023-01-06T02:12:24.832Z,98734.75
2023-01-06T02:14:52.500Z,98729.31
2023-01-06T02:17:41.802Z,98722.47
2023-01-06T02:20:52.973Z,98726.13
2023-01-06T02:24:13.487Z,98714.59
2023-01-06T02:27:09.630Z,98718.59
2023-01-06T02:29:59.065Z,98722.44
2023-01-06T02:32:38.739Z,98722.28
2023-01-06T02:35:17.214Z,98712.06
2023-01-06T02:37:56.152Z,98712.84
2023-01-06T02:40:35.417Z,98706.28
2023-01-06T02:43:15.834Z,98696.81
2023-01-06T02:45:56.300Z,98699.06
2023-01-06T02:48:34.842Z,98698.44
2023-01-06T02:51:12.223Z,98702.09
2023-01-06T02:53:50.117Z,98694.13
2023-01-06T02:56:23.344Z,98701.63
2023-01-06T02:58:56.934Z,98705.63
2023-01-06T03:01:32.268Z,98702.44
2023-01-06T03:04:05.548Z,98710.28
2023-01-06T03:06:36.807Z,98703.22
2023-01-06T03:09:06.312Z,98703.56
2023-01-06T03:11:36.438Z,98698.59
2023-01-06T03:14:07.512Z,98700.50
2023-01-06T03:16:35.361Z,98697.94
2023-01-06T03:19:04.451Z,98701.78
2023-01-06T03:21:35.715Z,98707.84
2023-01-06T03:24:06.190Z,98703.50
2023-01-06T03:26:34.406Z,98702.06
2023-01-06T03:29:04.304Z,98699.50
2023-01-06T03:31:38.585Z,98698.53
2023-01-06T03:34:23.968Z,98702.88
2023-01-06T03:36:58.965Z,98692.44
2023-01-06T03:39:35.035Z,98687.81
2023-01-06T03:42:36.397Z,98696.44
2023-01-06T03:45:15.360Z,98687.66
2023-01-06T03:47:53.475Z,98699.50
2023-01-06T03:50:26.480Z,98699.81
2023-01-06T03:53:01.174Z,98700.28
2023-01-06T03:55:33.328Z,98697.53
2023-01-06T03:58:04.859Z,98699.13
2023-01-06T04:00:36.973Z,98691.44
2023-01-06T04:03:09.892Z,98688.72
2023-01-06T04:05:39.060Z,98690.97
2023-01-06T04:08:06.938Z,98672.22
2023-01-06T04:10:34.592Z,98682.63
2023-01-06T04:13:01.341Z,98675.91
2023-01-06T04:15:29.846Z,98671.59
2023-01-06T04:17:57.872Z,98667.41
2023-01-06T04:20:27.326Z,98667.72
2023-01-06T04:22:57.664Z,98649.78
2023-01-06T04:25:26.104Z,98648.22
2023-01-06T04:27:54.237Z,98653.00
2023-01-06T04:30:21.932Z,98654.59
2023-01-06T04:32:50.348Z,98652.03
2023-01-06T04:35:18.175Z,98652.81
2023-01-06T04:37:45.906Z,98645.59
2023-01-06T04:40:15.161Z,98652.81
2023-01-06T04:43:00.187Z,98649.44
2023-01-06T04:45:27.856Z,98640.81
2023-01-06T04:47:55.562Z,98642.88
2023-01-06T04:50:23.246Z,98644.97
2023-01-06T04:52:50.891Z,98650.41
2023-01-06T04:55:19.970Z,98645.88
2023-01-06T04:57:47.703Z,98649.56
2023-01-06T05:00:16.398Z,98646.84
2023-01-06T05:02:44.385Z,98647.31
2023-01-06T05:05:12.699Z,98643.47
2023-01-06T05:07:40.446Z,98646.19
2023-01-06T05:10:09.945Z,98647.47
2023-01-06T05:12:39.042Z,98641.94
2023-01-06T05:15:07.859Z,98635.59
2023-01-06T05:17:35.587Z,98630.78
2023-01-06T05:20:03.299Z,98628.06
2023-01-06T05:22:30.965Z,98635.75
2023-01-06T05:24:58.659Z,98627.91
2023-01-06T05:27:26.327Z,98630.78
2023-01-06T05:29:55.369Z,98621.94
2023-01-06T05:32:23.330Z,98614.91
2023-01-06T05:34:50.954Z,98617.31
2023-01-06T05:37:18.630Z,98621.47
2023-01-06T05:39:46.379Z,98606.72
2023-01-06T05:42:14.062Z,98607.13
2023-01-06T05:44:41.822Z,98610.19
2023-01-06T05:47:10.872Z,98608.88
2023-01-06T05:49:38.527Z,98608.22
2023-01-06T05:52:06.202Z,98608.34
2023-01-06T05:54:33.904Z,98601.25
2023-01-06T05:57:01.639Z,98614.59
2023-01-06T05:59:29.278Z,98613.63
2023-01-06T06:01:56.965Z,98612.88
2023-01-06T06:04:26.135Z,98597.22
2023-01-06T06:06:53.915Z,98608.50
2023-01-06T06:09:21.630Z,98598.25
2023-01-06T06:11:51.841Z,98601.25
2023-01-06T06:14:19.956Z,98600.53
2023-01-06T06:16:47.738Z,98592.22
2023-01-06T06:19:16.062Z,98600.94
2023-01-06T06:21:45.145Z,98605.06
2023-01-06T06:24:12.898Z,98607.78
2023-01-06T06:26:40.590Z,98607.38
2023-01-06T06:29:08.486Z,98612.63
2023-01-06T06:31:36.203Z,98614.75
2023-01-06T06:34:05.243Z,98608.97
2023-01-06T06:36:33.331Z,98613.78
2023-01-06T06:39:02.381Z,98613.22
2023-01-06T06:41:30.183Z,98610.47
2023-01-06T06:43:57.895Z,98606.34
2023-01-06T06:46:25.713Z,98615.94
2023-01-06T06:48:53.435Z,98620.63
2023-01-06T06:51:23.971Z,98622.44
2023-01-06T06:53:52.182Z,98616.44
2023-01-06T06:56:22.071Z,98623.34
2023-01-06T06:58:50.031Z,98627.19
2023-01-06T07:01:19.626Z,98625.75
2023-01-06T07:03:47.740Z,98632.00
2023-01-06T07:06:18.489Z,98629.75
2023-01-06T07:08:46.864Z,98628.63
2023-01-06T07:11:15.071Z,98636.16
2023-01-06T07:13:44.225Z,98643.84
2023-01-06T07:16:12.074Z,98638.22
2023-01-06T07:18:40.109Z,98642.53
2023-01-06T07:21:08.116Z,98642.53
2023-01-06T07:23:35.793Z,98634.63
2023-01-06T07:26:04.751Z,98638.00
2023-01-06T07:28:33.731Z,98640.84
2023-01-06T07:31:02.988Z,98649.03
2023-01-06T07:33:31.001Z,98637.91
2023-01-06T07:35:59.218Z,98653.63
2023-01-06T07:38:27.184Z,98650.63
2023-01-06T07:41:00.600Z,98649.03
2023-01-06T07:43:28.433Z,98647.34
2023-01-06T07:45:56.294Z,98648.16
2023-01-06T07:48:25.351Z,98653.13
2023-01-06T07:50:53.159Z,98652.97
2023-01-06T07:53:21.822Z,98651.34
2023-01-06T07:55:53.277Z,98649.75
2023-01-06T07:58:21.554Z,98651.50
2023-01-06T08:00:49.242Z,98655.22
2023-01-06T08:03:16.980Z,98653.25
2023-01-06T08:05:46.207Z,98651.91
2023-01-06T08:08:14.004Z,98653.91
2023-01-06T08:10:42.672Z,98651.66
2023-01-06T08:13:10.797Z,98640.75
2023-01-06T08:15:39.496Z,98655.50
2023-01-06T08:18:07.540Z,98642.44
2023-01-06T08:20:35.259Z,98645.00
2023-01-06T08:23:04.443Z,98640.34
2023-01-06T08:25:32.113Z,98649.66
2023-01-06T08:28:00.688Z,98649.28
2023-01-06T08:30:29.355Z,98647.91
2023-01-06T08:32:58.442Z,98655.91
2023-01-06T08:35:26.517Z,98652.59
2023-01-06T08:37:54.158Z,98654.63
2023-01-06T08:40:23.653Z,98650.22
2023-01-06T08:42:51.363Z,98637.69
2023-01-06T08:45:19.238Z,98631.72
2023-01-06T08:47:47.031Z,98626.56
2023-01-06T08:50:14.756Z,98637.41
2023-01-06T08:52:42.499Z,98647.66
2023-01-06T08:55:10.312Z,98644.06
2023-01-06T08:57:39.306Z,98652.94
2023-01-06T09:00:08.341Z,98654.31
2023-01-06T09:02:36.053Z,98643.00
2023-01-06T09:05:03.817Z,98654.91
2023-01-06T09:07:31.590Z,98672.00
2023-01-06T09:09:59.328Z,98672.31
2023-01-06T09:12:27.246Z,98668.84
2023-01-06T09:14:56.287Z,98674.03
2023-01-06T09:17:23.937Z,98678.44
2023-01-06T09:19:51.641Z,98676.28
2023-01-06T09:22:19.322Z,98674.16
2023-01-06T09:24:46.983Z,98674.56
2023-01-06T09:27:14.689Z,98680.13
2023-01-06T09:29:42.884Z,98686.53
2023-01-06T09:32:11.897Z,98696.53
2023-01-06T09:34:39.638Z,98694.81
2023-01-06T09:37:07.395Z,98702.28
2023-01-06T09:39:37.119Z,98711.88
2023-01-06T09:42:25.370Z,98709.47
2023-01-06T09:44:57.147Z,98714.25
2023-01-06T09:47:28.937Z,98707.06
2023-01-06T09:50:03.796Z,98713.78
2023-01-06T09:52:36.802Z,98697.88
2023-01-06T09:55:07.970Z,98693.50
2023-01-06T09:57:40.120Z,98691.22
2023-01-06T10:00:20.911Z,98691.41
2023-01-06T10:02:50.051Z,98690.22
2023-01-06T10:05:21.873Z,98699.16
2023-01-06T10:07:58.197Z,98692.91
2023-01-06T10:10:36.480Z,98684.25
2023-01-06T10:13:18.947Z,98687.03
2023-01-06T10:15:53.151Z,98673.03
2023-01-06T10:18:33.595Z,98673.78
2023-01-06T10:21:11.713Z,98665.78
2023-01-06T10:24:09.116Z,98665.56
2023-01-06T10:26:42.847Z,98658.50
2023-01-06T10:29:15.775Z,98640.25
2023-01-06T10:31:45.646Z,98643.06
2023-01-06T10:34:21.623Z,98646.34
2023-01-06T10:36:55.895Z,98643.94
2023-01-06T10:39:27.534Z,98632.59
2023-01-06T10:42:16.712Z,98638.75
2023-01-06T10:44:44.393Z,98627.59
2023-01-06T10:47:21.407Z,98638.19
2023-01-06T10:49:50.485Z,98635.13
2023-01-06T10:52:18.688Z,98629.66
2023-01-06T10:54:47.785Z,98634.66
2023-01-06T10:57:23.125Z,98642.06
2023-01-06T11:00:15.175Z,98643.88
2023-01-06T11:02:44.709Z,98635.53
2023-01-06T11:05:19.334Z,98633.47
2023-01-06T11:07:50.823Z,98641.69
2023-01-06T11:10:27.634Z,98649.66
2023-01-06T11:12:57.636Z,98654.22
2023-01-06T11:15:29.578Z,98651.00
2023-01-06T11:17:57.269Z,98652.91
2023-01-06T11:20:31.946Z,98641.72
2023-01-06T11:23:14.766Z,98638.84
2023-01-06T11:25:42.633Z,98643.13
2023-01-06T11:28:16.192Z,98648.31
2023-01-06T11:30:51.319Z,98648.66
2023-01-06T11:33:21.551Z,98649.69
2023-01-06T11:35:51.419Z,98651.47
2023-01-06T11:38:21.208Z,98662.53
2023-01-06T11:40:50.732Z,98648.09
2023-01-06T11:43:23.297Z,98658.06
2023-01-06T11:45:56.628Z,98641.81
2023-01-06T11:48:30.724Z,98645.34
2023-01-06T11:51:01.485Z,98643.28
2023-01-06T11:53:30.353Z,98647.56
2023-01-06T11:56:01.133Z,98655.06
2023-01-06T11:58:41.501Z,98652.59
2023-01-06T12:01:16.570Z,98661.75
2023-01-06T12:03:46.416Z,98655.41
2023-01-06T12:06:30.403Z,98654.88
2023-01-06T12:09:03.035Z,98658.72
2023-01-06T12:11:42.177Z,98652.47
2023-01-06T12:14:27.300Z,98650.06
2023-01-06T12:17:04.913Z,98648.38
2023-01-06T12:19:40.297Z,98650.06
2023-01-06T12:22:22.752Z,98656.00
2023-01-06T12:24:52.603Z,98658.47
2023-01-06T12:27:28.835Z,98655.25
2023-01-06T12:30:01.525Z,98656.88
2023-01-06T12:32:37.557Z,98646.47
2023-01-06T12:35:07.640Z,98644.84
2023-01-06T12:37:40.055Z,98627.72
2023-01-06T12:40:16.913Z,98622.59
2023-01-06T12:42:50.504Z,98620.00
2023-01-06T12:45:24.484Z,98619.06
2023-01-06T12:47:55.144Z,98623.66
2023-01-06T12:50:32.574Z,98611.47
2023-01-06T12:53:19.900Z,98612.00
2023-01-06T12:55:59.408Z,98613.72
2023-01-06T12:58:32.297Z,98610.53
2023-01-06T13:01:06.728Z,98599.41
2023-01-06T13:04:09.712Z,98603.59
2023-01-06T13:06:53.413Z,98607.03
2023-01-06T13:09:48.487Z,98592.34
2023-01-06T13:12:41.995Z,98590.28
2023-01-06T13:15:20.555Z,98598.16
2023-01-06T13:17:55.884Z,98594.63
2023-01-06T13:20:29.163Z,98597.81
2023-01-06T13:23:12.407Z,98589.88
2023-01-06T13:26:00.172Z,98603.03
2023-01-06T13:28:40.528Z,98596.00
2023-01-06T13:31:27.684Z,98602.81
2023-01-06T13:34:23.531Z,98607.81
2023-01-06T13:37:14.172Z,98603.75
2023-01-06T13:39:45.199Z,98608.94
2023-01-06T13:42:16.908Z,98623.38
2023-01-06T13:44:47.695Z,98621.44
2023-01-06T13:47:19.343Z,98620.53
2023-01-06T13:49:47.088Z,98628.72
2023-01-06T13:52:20.364Z,98624.38
2023-01-06T13:55:08.108Z,98637.69
2023-01-06T13:57:39.883Z,98635.16
2023-01-06T14:00:26.823Z,98637.69
2023-01-06T14:03:17.288Z,98631.81
2023-01-06T14:05:59.330Z,98628.50
2023-01-06T14:08:31.529Z,98634.09
2023-01-06T14:11:05.177Z,98638.88
2023-01-06T14:13:39.444Z,98631.34
2023-01-06T14:16:10.774Z,98624.13
2023-01-06T14:18:45.081Z,98637.09
2023-01-06T14:21:25.605Z,98632.78
2023-01-06T14:24:01.619Z,98633.13
2023-01-06T14:26:49.926Z,98640.00
2023-01-06T14:30:01.548Z,98637.78
2023-01-06T14:33:03.395Z,98648.84
2023-01-06T14:35:36.668Z,98639.53
2023-01-06T14:38:07.593Z,98641.00
2023-01-06T14:40:38.720Z,98638.94
2023-01-06T14:43:30.327Z,98647.91
2023-01-06T14:46:07.275Z,98644.72
2023-01-06T14:48:42.124Z,98651.78
2023-01-06T14:51:16.593Z,98654.03
2023-01-06T14:53:50.340Z,98647.13
2023-01-06T14:56:20.927Z,98671.09
2023-01-06T14:58:48.798Z,98661.09
2023-01-06T15:01:26.588Z,98654.03
2023-01-06T15:04:00.781Z,98665.63
2023-01-06T15:06:30.625Z,98657.91
2023-01-06T15:09:12.587Z,98664.84
2023-01-06T15:11:42.968Z,98656.19
2023-01-06T15:14:27.753Z,98651.63
2023-01-06T15:16:58.383Z,98667.91
2023-01-06T15:19:26.579Z,98662.63
2023-01-06T15:21:55.206Z,98660.84
2023-01-06T15:24:26.397Z,98663.09
2023-01-06T15:26:55.862Z,98666.00
2023-01-06T15:29:25.523Z,98658.97
2023-01-06T15:31:55.220Z,98670.53
2023-01-06T15:34:28.551Z,98673.06
2023-01-06T15:37:10.721Z,98669.22
2023-01-06T15:39:40.776Z,98672.41
2023-01-06T15:42:10.731Z,98678.72
2023-01-06T15:44:39.646Z,98680.13
2023-01-06T15:47:24.069Z,98679.19
2023-01-06T15:49:56.682Z,98678.38
2023-01-06T15:52:26.948Z,98683.03
2023-01-06T15:54:57.541Z,98682.38
2023-01-06T15:57:26.597Z,98676.94
2023-01-06T15:59:56.749Z,98690.25
2023-01-06T16:02:27.314Z,98687.03
2023-01-06T16:04:59.078Z,98690.09
2023-01-06T16:07:36.830Z,98696.22
2023-01-06T16:10:05.065Z,98695.75
2023-01-06T16:12:39.187Z,98699.41
2023-01-06T16:15:45.056Z,98693.03
2023-01-06T16:18:13.307Z,98703.16
2023-01-06T16:20:42.725Z,98697.53
2023-01-06T16:23:25.503Z,98694.91
2023-01-06T16:26:07.560Z,98693.47
2023-01-06T16:28:36.137Z,98692.22
2023-01-06T16:31:06.161Z,98700.75
2023-01-06T16:33:38.836Z,98694.59
2023-01-06T16:36:13.504Z,98702.34
2023-01-06T16:38:41.154Z,98702.34
2023-01-06T16:41:12.368Z,98698.50
2023-01-06T16:43:40.027Z,98703.00
2023-01-06T16:46:15.349Z,98704.59
2023-01-06T16:48:43.081Z,98699.16
2023-01-06T16:51:18.826Z,98700.59
2023-01-06T16:53:47.014Z,98702.34
2023-01-06T16:56:19.376Z,98701.53
2023-01-06T16:58:47.171Z,98703.31
2023-01-06T17:01:17.633Z,98705.25
2023-01-06T17:03:50.630Z,98705.25
2023-01-06T17:06:21.549Z,98709.09
2023-01-06T17:08:49.709Z,98708.97
2023-01-06T17:11:19.663Z,98720.50
2023-01-06T17:13:54.803Z,98708.97
2023-01-06T17:16:27.143Z,98706.19
2023-01-06T17:18:56.764Z,98704.59
2023-01-06T17:21:29.334Z,98712.00
2023-01-06T17:24:00.301Z,98714.75
2023-01-06T17:26:28.218Z,98715.88
2023-01-06T17:28:58.536Z,98716.53
2023-01-06T17:31:33.467Z,98717.00
2023-01-06T17:34:11.433Z,98715.59
2023-01-06T17:36:42.425Z,98711.38
2023-01-06T17:39:17.981Z,98714.25
2023-01-06T17:41:45.681Z,98721.53
2023-01-06T17:44:16.752Z,98723.13
2023-01-06T17:46:45.193Z,98726.78
2023-01-06T17:49:35.277Z,98716.53
2023-01-06T17:52:14.722Z,98733.56
2023-01-06T17:55:00.079Z,98727.09
2023-01-06T17:57:28.064Z,98729.50
2023-01-06T17:59:57.277Z,98726.78
2023-01-06T18:02:40.032Z,98723.91
2023-01-06T18:05:51.064Z,98727.56
2023-01-06T18:08:20.705Z,98728.84
2023-01-06T18:10:52.235Z,98730.63
2023-01-06T18:13:22.736Z,98733.56
2023-01-06T18:15:52.531Z,98730.16
2023-01-06T18:18:23.713Z,98745.78
2023-01-06T18:20:54.374Z,98738.72
2023-01-06T18:23:26.852Z,98735.38
2023-01-06T18:25:58.101Z,98745.63
2023-01-06T18:28:26.149Z,98740.97
2023-01-06T18:30:58.030Z,98745.13
2023-01-06T18:33:26.676Z,98751.53
2023-01-06T18:35:57.457Z,98748.75
2023-01-06T18:38:27.788Z,98746.34
2023-01-06T18:40:55.941Z,98749.06
2023-01-06T18:43:27.811Z,98753.13
2023-01-06T18:45:58.446Z,98760.16
2023-01-06T18:48:30.295Z,98752.31
2023-01-06T18:50:59.663Z,98752.19
2023-01-06T18:53:31.270Z,98756.97
2023-01-06T18:56:01.709Z,98756.03
2023-01-06T18:58:46.233Z,98760.63
2023-01-06T19:01:20.553Z,98756.97
2023-01-06T19:03:58.378Z,98756.03
2023-01-06T19:06:35.730Z,98755.38
2023-01-06T19:09:22.344Z,98759.88
2023-01-06T19:11:58.277Z,98759.88
2023-01-06T19:14:26.328Z,98761.34
2023-01-06T19:16:56.204Z,98765.03
2023-01-06T19:19:27.261Z,98749.63
2023-01-06T19:22:07.636Z,98764.56
2023-01-06T19:24:48.967Z,98765.03
2023-01-06T19:27:28.637Z,98756.19
2023-01-06T19:30:02.359Z,98765.69
2023-01-06T19:32:36.512Z,98766.16
2023-01-06T19:35:14.794Z,98765.22
2023-01-06T19:37:42.485Z,98758.44
2023-01-06T19:40:24.337Z,98757.69
2023-01-06T19:42:52.060Z,98746.78
2023-01-06T19:45:29.906Z,98747.75
2023-01-06T19:47:59.675Z,98752.91
2023-01-06T19:50:27.728Z,98746.97
2023-01-06T19:52:57.958Z,98752.25
2023-01-06T19:55:29.046Z,98745.34
2023-01-06T19:58:00.016Z,98748.72
2023-01-06T20:00:31.226Z,98758.34
2023-01-06T20:03:01.830Z,98756.09
2023-01-06T20:05:31.829Z,98752.41
2023-01-06T20:07:59.633Z,98750.16
2023-01-06T20:10:28.735Z,98753.38
2023-01-06T20:12:56.405Z,98753.53
2023-01-06T20:15:24.222Z,98754.97
2023-01-06T20:17:53.117Z,98750.00
2023-01-06T20:20:20.958Z,98738.94
2023-01-06T20:22:48.964Z,98739.75
2023-01-06T20:25:16.991Z,98740.53
2023-01-06T20:27:46.151Z,98740.69
2023-01-06T20:30:13.976Z,98735.25
2023-01-06T20:32:42.770Z,98735.88
2023-01-06T20:35:11.236Z,98742.28
2023-01-06T20:37:39.686Z,98749.31
2023-01-06T20:40:09.323Z,98749.31
2023-01-06T20:42:37.091Z,98747.75
2023-01-06T20:45:08.523Z,98746.41
2023-01-06T20:47:36.463Z,98754.13
2023-01-06T20:50:07.325Z,98752.03
2023-01-06T20:52:35.406Z,98759.78
2023-01-06T20:55:03.237Z,98757.06
2023-01-06T20:57:31.278Z,98751.88
2023-01-06T20:59:59.407Z,98750.56
2023-01-06T21:02:29.942Z,98760.91
2023-01-06T21:04:59.057Z,98755.25
2023-01-06T21:07:26.953Z,98760.56
2023-01-06T21:09:56.102Z,98761.81
2023-01-06T21:12:24.092Z,98755.44
2023-01-06T21:14:51.996Z,98749.69
2023-01-06T21:17:19.886Z,98754.34
2023-01-06T21:19:49.447Z,98747.06
2023-01-06T21:22:17.280Z,98737.66
2023-01-06T21:24:45.399Z,98742.00
2023-01-06T21:27:13.514Z,98737.81
2023-01-06T21:29:41.208Z,98735.56
2023-01-06T21:32:09.784Z,98739.09
2023-01-06T21:34:38.188Z,98736.53
2023-01-06T21:37:07.639Z,98736.22
2023-01-06T21:39:35.756Z,98741.88
2023-01-06T21:42:21.165Z,98739.78
2023-01-06T21:44:49.981Z,98742.47
2023-01-06T21:47:17.859Z,98745.34
2023-01-06T21:49:45.853Z,98742.94
2023-01-06T21:52:16.486Z,98746.47
2023-01-06T21:54:45.995Z,98750.06
2023-01-06T21:57:14.241Z,98746.00
2023-01-06T21:59:42.122Z,98750.06
2023-01-06T22:02:10.556Z,98742.00
2023-01-06T22:04:38.448Z,98737.56
2023-01-06T22:07:09.577Z,98733.69
2023-01-06T22:09:42.834Z,98730.78
2023-01-06T22:12:15.548Z,98742.34
2023-01-06T22:14:44.192Z,98735.94
2023-01-06T22:17:12.442Z,98731.25
2023-01-06T22:19:40.881Z,98740.75
2023-01-06T22:22:08.700Z,98738.47
2023-01-06T22:24:38.259Z,98741.03
2023-01-06T22:27:05.931Z,98738.47
2023-01-06T22:29:33.761Z,98750.34
2023-01-06T22:32:02.975Z,98744.41
2023-01-06T22:34:30.938Z,98749.69
2023-01-06T22:36:59.041Z,98750.69
2023-01-06T22:39:26.797Z,98757.59
2023-01-06T22:41:55.918Z,98751.34
2023-01-06T22:44:23.747Z,98752.78
2023-01-06T22:46:51.470Z,98747.19
2023-01-06T22:49:19.203Z,98753.09
2023-01-06T22:51:46.945Z,98748.50
2023-01-06T22:54:14.633Z,98746.09
2023-01-06T22:56:42.378Z,98741.72
2023-01-06T22:59:11.425Z,98745.44
2023-01-06T23:01:39.317Z,98748.78
2023-01-06T23:04:07.003Z,98742.03
2023-01-06T23:06:34.785Z,98740.13
2023-01-06T23:09:02.476Z,98739.19
2023-01-06T23:11:31.370Z,98738.19
2023-01-06T23:14:00.260Z,98738.06
2023-01-06T23:16:30.168Z,98743.53
2023-01-06T23:18:58.112Z,98738.25
2023-01-06T23:21:27.659Z,98739.84
2023-01-06T23:23:55.576Z,98746.38
2023-01-06T23:26:26.304Z,98730.81
2023-01-06T23:28:54.903Z,98728.78
2023-01-06T23:31:24.648Z,98721.88
2023-01-06T23:33:56.917Z,98727.34
2023-01-06T23:36:26.273Z,98724.63
2023-01-06T23:38:56.074Z,98718.19
2023-01-06T23:41:25.414Z,98721.88
2023-01-06T23:43:53.884Z,98719.31
2023-01-06T23:46:23.075Z,98723.13
2023-01-06T23:48:50.841Z,98715.59
2023-01-06T23:51:20.558Z,98717.22
2023-01-06T23:53:48.323Z,98710.34
2023-01-06T23:56:18.170Z,98710.53
2023-01-06T23:58:47.966Z,98711.63
